Three Stars — 3ELI2 — position and weather

sailwx.info

Track history (hours):
 
Tides and Currents Weather Stations Pressure Air Temp Water Temp Dewpoint Dewpoint Depression Visibility Wind Speed Wind Dir Waves Ship Positions

Three Stars

Last reported at 2016-Aug-25 01:34 UTC. Time now 2016-Aug-30 10:57 UTC.
Position S 32°57' W 071°39'.

Length 225 m; draft 7.1 m.

Type: Cargo ship. MMSI: 372950000.

Date/timePositionNaut miles runAvg speedWind from/ knotsBaromVisibWave heightAir tempDewpointWater temp
2016-Aug-25 01:34S 32°57' W 071°39'5 1.6
2016-Aug-24 22:27S 33°01' W 071°35'0 0.0
2016-Aug-24 21:33S 33°01' W 071°35'0 0.0
2016-Aug-24 20:30S 33°01' W 071°35'0 0.0
2016-Aug-24 19:12S 33°01' W 071°35'0 0.0
2016-Aug-24 18:33S 33°01' W 071°35'0 0.0
2016-Aug-24 17:30S 33°01' W 071°35'0 0.0
2016-Aug-24 16:33S 33°01' W 071°35'0 0.0
2016-Aug-24 15:27S 33°01' W 071°35'0 0.0
2016-Aug-24 14:33S 33°01' W 071°35'0 0.0
2016-Aug-24 13:30S 33°01' W 071°36'0 0.0
2016-Aug-24 12:33S 33°01' W 071°36'1 1.1
2016-Aug-24 11:33S 33°01' W 071°37'7 7.4
2016-Aug-24 10:33S 32°55' W 071°42'1110.7
2016-Aug-24 09:33S 32°47' W 071°51'5 0.5
2016-Aug-23 23:33S 32°47' W 071°57'1 1.0
2016-Aug-23 22:09S 32°47' W 071°58'1 0.9
2016-Aug-23 21:33S 32°48' W 071°59'1 0.7
2016-Aug-23 20:33S 32°48' W 071°60'1 0.5
2016-Aug-23 19:21S 32°48' W 072°00'1 0.6
2016-Aug-23 18:33S 32°48' W 072°01'9 0.3
2016-Aug-22 11:12S 32°41' W 071°55'3 2.4
2016-Aug-22 10:04S 32°43' W 071°54'14 7.2
2016-Aug-22 08:04S 32°44' W 071°37'6 0.7
2016-Aug-21 22:30S 32°45' W 071°30'0 0.0
2016-Aug-21 21:33S 32°45' W 071°30'0 0.0
2016-Aug-21 20:33S 32°45' W 071°30'0 0.0
2016-Aug-21 19:33S 32°45' W 071°30'0 0.0
2016-Aug-21 18:33S 32°45' W 071°30'0 0.0
2016-Aug-21 17:30S 32°45' W 071°30'0 0.0
2016-Aug-21 16:24S 32°45' W 071°30'0 0.0
2016-Aug-21 15:27S 32°45' W 071°30'0 0.0
2016-Aug-21 14:24S 32°45' W 071°30'0 0.0
2016-Aug-21 13:30S 32°45' W 071°30'0 0.0
2016-Aug-21 12:33S 32°45' W 071°30'0 0.0
2016-Aug-20 21:24S 32°45' W 071°30'0 0.0
2016-Aug-20 20:21S 32°45' W 071°30'0 0.0
2016-Aug-20 19:30S 32°45' W 071°30'0 0.0
2016-Aug-20 18:30S 32°45' W 071°30'0 0.0
2016-Aug-20 17:12S 32°45' W 071°30'0 0.0
2016-Aug-20 16:15S 32°45' W 071°30'0 0.0
2016-Aug-20 15:30S 32°45' W 071°30'0 0.0
2016-Aug-20 14:33S 32°45' W 071°30'0 0.0
2016-Aug-20 13:18S 32°45' W 071°30'0 0.0
2016-Aug-20 12:27S 32°45' W 071°30'0 0.0
2016-Aug-19 22:24S 32°45' W 071°30'0 0.0
2016-Aug-19 21:27S 32°45' W 071°30'0 0.0
2016-Aug-19 20:33S 32°45' W 071°30'0 0.0
2016-Aug-19 19:32S 32°45' W 071°30'1 1.3
2016-Aug-19 18:33S 32°45' W 071°31'0 0.1
2016-Aug-19 17:31S 32°45' W 071°31'0 0.0
2016-Aug-19 16:31S 32°45' W 071°31'0 0.0
2016-Aug-19 15:31S 32°45' W 071°31'0 0.0
2016-Aug-19 13:28S 32°45' W 071°31'0 0.0
2016-Aug-19 12:31S 32°45' W 071°31'0 0.0
2016-Aug-18 22:31S 32°45' W 071°31'0 0.0
2016-Aug-18 21:31S 32°45' W 071°31'0 0.0
2016-Aug-18 20:31S 32°45' W 071°31'0 0.0
2016-Aug-18 19:31S 32°45' W 071°31'0 0.0
2016-Aug-18 18:31S 32°45' W 071°31'0 0.0
2016-Aug-18 17:25S 32°45' W 071°31'0 0.0
2016-Aug-18 16:31S 32°45' W 071°31'0 0.0
2016-Aug-18 15:31S 32°45' W 071°31'0 0.1
2016-Aug-18 14:31S 32°45' W 071°31'0 0.0
2016-Aug-18 13:31S 32°45' W 071°31'0 0.0
2016-Aug-18 12:31S 32°45' W 071°31'0 0.0
2016-Aug-18 11:31S 32°45' W 071°31'0 0.0
2016-Aug-18 10:31S 32°45' W 071°31'0 0.0
2016-Aug-18 09:31S 32°45' W 071°31'0 0.0
2016-Aug-18 08:28S 32°45' W 071°31'0 0.0
2016-Aug-18 07:10S 32°45' W 071°31'0 0.0
2016-Aug-18 06:22S 32°45' W 071°31'0 0.0
2016-Aug-18 01:22S 32°45' W 071°31'0 0.0
2016-Aug-18 00:22S 32°45' W 071°31'0 0.0
2016-Aug-17 23:16S 32°45' W 071°31'0 0.0
2016-Aug-17 22:31S 32°45' W 071°31'0 0.0
2016-Aug-17 21:31S 32°45' W 071°31'0 0.0
2016-Aug-17 20:31S 32°45' W 071°31'0 0.0
2016-Aug-17 19:31S 32°45' W 071°31'0 0.0
2016-Aug-17 18:31S 32°45' W 071°31'0 0.0
2016-Aug-17 17:31S 32°45' W 071°31'0 0.0
2016-Aug-17 16:31S 32°45' W 071°31'0 0.0
2016-Aug-17 15:31S 32°45' W 071°31'0 0.0
2016-Aug-17 14:07S 32°45' W 071°31'0 0.1
2016-Aug-17 13:31S 32°45' W 071°31'0 0.1
2016-Aug-17 12:31S 32°45' W 071°31'0 0.1
2016-Aug-17 11:28S 32°45' W 071°31'  
Track history (hours):
 
Tides and Currents Weather Stations Pressure Air Temp Water Temp Dewpoint Dewpoint Depression Visibility Wind Speed Wind Dir Waves Ship Positions

Three Stars

Last reported at 2016-Aug-25 01:34 UTC. Time now 2016-Aug-30 10:57 UTC.
Position S 32°57' W 071°39'.

Length 225 m; draft 7.1 m.

Type: Cargo ship. MMSI: 372950000.

Date/timePositionNaut miles runAvg speedWind from/ knotsBaromVisibWave heightAir tempDewpointWater temp
2016-Aug-25 01:34S 32°57' W 071°39'5 1.6
2016-Aug-24 22:27S 33°01' W 071°35'0 0.0
2016-Aug-24 21:33S 33°01' W 071°35'0 0.0
2016-Aug-24 20:30S 33°01' W 071°35'0 0.0
2016-Aug-24 19:12S 33°01' W 071°35'0 0.0
2016-Aug-24 18:33S 33°01' W 071°35'0 0.0
2016-Aug-24 17:30S 33°01' W 071°35'0 0.0
2016-Aug-24 16:33S 33°01' W 071°35'0 0.0
2016-Aug-24 15:27S 33°01' W 071°35'0 0.0
2016-Aug-24 14:33S 33°01' W 071°35'0 0.0
2016-Aug-24 13:30S 33°01' W 071°36'0 0.0
2016-Aug-24 12:33S 33°01' W 071°36'1 1.1
2016-Aug-24 11:33S 33°01' W 071°37'7 7.4
2016-Aug-24 10:33S 32°55' W 071°42'1110.7
2016-Aug-24 09:33S 32°47' W 071°51'5 0.5
2016-Aug-23 23:33S 32°47' W 071°57'1 1.0
2016-Aug-23 22:09S 32°47' W 071°58'1 0.9
2016-Aug-23 21:33S 32°48' W 071°59'1 0.7
2016-Aug-23 20:33S 32°48' W 071°60'1 0.5
2016-Aug-23 19:21S 32°48' W 072°00'1 0.6
2016-Aug-23 18:33S 32°48' W 072°01'9 0.3
2016-Aug-22 11:12S 32°41' W 071°55'3 2.4
2016-Aug-22 10:04S 32°43' W 071°54'14 7.2
2016-Aug-22 08:04S 32°44' W 071°37'6 0.7
2016-Aug-21 22:30S 32°45' W 071°30'0 0.0
2016-Aug-21 21:33S 32°45' W 071°30'0 0.0
2016-Aug-21 20:33S 32°45' W 071°30'0 0.0
2016-Aug-21 19:33S 32°45' W 071°30'0 0.0
2016-Aug-21 18:33S 32°45' W 071°30'0 0.0
2016-Aug-21 17:30S 32°45' W 071°30'0 0.0
2016-Aug-21 16:24S 32°45' W 071°30'0 0.0
2016-Aug-21 15:27S 32°45' W 071°30'0 0.0
2016-Aug-21 14:24S 32°45' W 071°30'0 0.0
2016-Aug-21 13:30S 32°45' W 071°30'0 0.0
2016-Aug-21 12:33S 32°45' W 071°30'0 0.0
2016-Aug-20 21:24S 32°45' W 071°30'0 0.0
2016-Aug-20 20:21S 32°45' W 071°30'0 0.0
2016-Aug-20 19:30S 32°45' W 071°30'0 0.0
2016-Aug-20 18:30S 32°45' W 071°30'0 0.0
2016-Aug-20 17:12S 32°45' W 071°30'0 0.0
2016-Aug-20 16:15S 32°45' W 071°30'0 0.0
2016-Aug-20 15:30S 32°45' W 071°30'0 0.0
2016-Aug-20 14:33S 32°45' W 071°30'0 0.0
2016-Aug-20 13:18S 32°45' W 071°30'0 0.0
2016-Aug-20 12:27S 32°45' W 071°30'0 0.0
2016-Aug-19 22:24S 32°45' W 071°30'0 0.0
2016-Aug-19 21:27S 32°45' W 071°30'0 0.0
2016-Aug-19 20:33S 32°45' W 071°30'0 0.0
2016-Aug-19 19:32S 32°45' W 071°30'1 1.3
2016-Aug-19 18:33S 32°45' W 071°31'0 0.1
2016-Aug-19 17:31S 32°45' W 071°31'0 0.0
2016-Aug-19 16:31S 32°45' W 071°31'0 0.0
2016-Aug-19 15:31S 32°45' W 071°31'0 0.0
2016-Aug-19 13:28S 32°45' W 071°31'0 0.0
2016-Aug-19 12:31S 32°45' W 071°31'0 0.0
2016-Aug-18 22:31S 32°45' W 071°31'0 0.0
2016-Aug-18 21:31S 32°45' W 071°31'0 0.0
2016-Aug-18 20:31S 32°45' W 071°31'0 0.0
2016-Aug-18 19:31S 32°45' W 071°31'0 0.0
2016-Aug-18 18:31S 32°45' W 071°31'0 0.0
2016-Aug-18 17:25S 32°45' W 071°31'0 0.0
2016-Aug-18 16:31S 32°45' W 071°31'0 0.0
2016-Aug-18 15:31S 32°45' W 071°31'0 0.1
2016-Aug-18 14:31S 32°45' W 071°31'0 0.0
2016-Aug-18 13:31S 32°45' W 071°31'0 0.0
2016-Aug-18 12:31S 32°45' W 071°31'0 0.0
2016-Aug-18 11:31S 32°45' W 071°31'0 0.0
2016-Aug-18 10:31S 32°45' W 071°31'0 0.0
2016-Aug-18 09:31S 32°45' W 071°31'0 0.0
2016-Aug-18 08:28S 32°45' W 071°31'0 0.0
2016-Aug-18 07:10S 32°45' W 071°31'0 0.0
2016-Aug-18 06:22S 32°45' W 071°31'0 0.0
2016-Aug-18 01:22S 32°45' W 071°31'0 0.0
2016-Aug-18 00:22S 32°45' W 071°31'0 0.0
2016-Aug-17 23:16S 32°45' W 071°31'0 0.0
2016-Aug-17 22:31S 32°45' W 071°31'0 0.0
2016-Aug-17 21:31S 32°45' W 071°31'0 0.0
2016-Aug-17 20:31S 32°45' W 071°31'0 0.0
2016-Aug-17 19:31S 32°45' W 071°31'0 0.0
2016-Aug-17 18:31S 32°45' W 071°31'0 0.0
2016-Aug-17 17:31S 32°45' W 071°31'0 0.0
2016-Aug-17 16:31S 32°45' W 071°31'0 0.0
2016-Aug-17 15:31S 32°45' W 071°31'0 0.0
2016-Aug-17 14:07S 32°45' W 071°31'0 0.1
2016-Aug-17 13:31S 32°45' W 071°31'0 0.1
2016-Aug-17 12:31S 32°45' W 071°31'0 0.1
2016-Aug-17 11:28S 32°45' W 071°31'  

Dump ship's entire track history